Time;durP1;ratioP1;P1;durP2;ratioP2;P2;SDS_P1;SDS_P2;PMS_P1;PMS_P2;Temp;Humidity;BMP_temperature;BMP_pressure;BME280_temperature;BME280_humidity;BME280_pressure;Samples;Min_cycle;Max_cycle;Signal;HPM_P1;HPM_P2
2022/12/01 00:00:38;;;;;;;1.35;1.25;;;;;;;4.40;100.00;103199.56;10414110;28;20099;-80
2022/12/01 00:05:40;;;;;;;5.65;3.38;;;;;;;4.40;100.00;103188.44;10403440;28;20037;-80
2022/12/01 00:10:41;;;;;;;4.10;3.10;;;;;;;4.37;100.00;103199.28;10415639;28;20092;-80
2022/12/01 00:15:43;;;;;;;3.10;2.78;;;;;;;4.40;100.00;103207.22;10406706;28;20054;-81
2022/12/01 00:20:47;;;;;;;7.47;2.42;;;;;;;4.39;100.00;103207.09;10410238;28;20056;-80
2022/12/01 00:25:49;;;;;;;11.35;4.57;;;;;;;4.39;100.00;103209.63;10396576;28;20041;-80
2022/12/01 00:30:51;;;;;;;8.68;1.95;;;;;;;4.47;100.00;103205.19;10424778;28;20050;-80
2022/12/01 00:35:59;;;;;;;4.85;3.15;;;;;;;4.43;100.00;103215.13;10414824;28;20619;-80
2022/12/01 00:41:02;;;;;;;5.68;3.70;;;;;;;4.46;100.00;103204.31;10398079;28;20049;-80
2022/12/01 00:46:04;;;;;;;5.38;3.08;;;;;;;4.40;100.00;103214.88;10414352;28;20049;-80
2022/12/01 00:51:06;;;;;;;1.65;1.35;;;;;;;4.38;100.00;103211.28;10397021;28;20080;-80
2022/12/01 00:56:07;;;;;;;8.85;4.18;;;;;;;4.41;100.00;103221.78;10410153;28;20038;-80
2022/12/01 01:01:09;;;;;;;4.55;2.47;;;;;;;4.44;100.00;103211.81;10414468;28;20463;-80
2022/12/01 01:06:11;;;;;;;3.80;2.33;;;;;;;4.44;100.00;103223.69;10389508;28;20124;-81
2022/12/01 01:11:13;;;;;;;1.50;1.33;;;;;;;4.33;100.00;103227.84;10396694;28;20072;-79
2022/12/01 01:16:17;;;;;;;2.58;2.17;;;;;;;4.27;100.00;103232.41;10442877;28;20045;-79
2022/12/01 01:21:21;;;;;;;2.70;2.15;;;;;;;4.26;100.00;103236.59;10410935;28;20053;-79
2022/12/01 01:26:25;;;;;;;6.00;3.40;;;;;;;4.24;100.00;103253.47;10395987;28;20092;-79
2022/12/01 01:31:29;;;;;;;2.58;1.55;;;;;;;4.30;100.00;103263.28;10387461;28;20104;-79
2022/12/01 01:36:31;;;;;;;5.63;3.00;;;;;;;4.27;100.00;103263.03;10414726;28;20435;-81
2022/12/01 01:41:33;;;;;;;2.20;1.75;;;;;;;4.30;100.00;103268.41;10411523;28;20088;-80
2022/12/01 01:46:35;;;;;;;2.58;1.92;;;;;;;4.26;100.00;103274.00;10411475;28;20099;-80
2022/12/01 01:51:52;;;;;;;6.57;2.53;;;;;;;4.30;100.00;103283.72;10406032;28;20048;-80
2022/12/01 01:56:56;;;;;;;4.03;2.33;;;;;;;4.27;100.00;103286.00;10411704;28;20069;-80
2022/12/01 02:02:07;;;;;;;14.80;2.38;;;;;;;4.30;100.00;103281.16;10411186;28;20046;-80
2022/12/01 02:07:11;;;;;;;8.18;4.60;;;;;;;4.31;100.00;103272.75;10410596;28;20076;-80
2022/12/01 02:12:40;;;;;;;5.10;2.05;;;;;;;4.28;100.00;103275.03;10384167;28;20049;-80
2022/12/01 02:18:24;;;;;;;8.98;2.60;;;;;;;4.24;100.00;103272.94;10393941;28;20100;-80
2022/12/01 02:24:05;;;;;;;4.38;2.83;;;;;;;4.26;100.00;103276.56;10405721;28;20044;-80
2022/12/01 02:29:24;;;;;;;4.47;1.40;;;;;;;4.24;100.00;103272.94;10410777;28;20156;-79
2022/12/01 02:34:49;;;;;;;4.97;3.15;;;;;;;4.23;100.00;103276.25;10418741;28;20448;-79
2022/12/01 02:40:00;;;;;;;3.35;1.88;;;;;;;4.25;100.00;103270.53;10401788;28;20447;-79
2022/12/01 02:45:12;;;;;;;4.00;2.72;;;;;;;4.30;100.00;103278.59;10418254;28;20065;-82
2022/12/01 02:50:13;;;;;;;2.63;2.03;;;;;;;4.28;100.00;103265.72;10415900;28;20550;-79
2022/12/01 02:55:15;;;;;;;2.88;2.08;;;;;;;4.28;100.00;103265.72;10410487;28;20493;-80
2022/12/01 03:00:17;;;;;;;8.27;3.38;;;;;;;4.31;100.00;103262.53;10431583;28;20045;-80
2022/12/01 03:05:31;;;;;;;4.20;2.63;;;;;;;4.29;100.00;103256.38;10417157;28;20049;-80
2022/12/01 03:10:54;;;;;;;2.42;1.85;;;;;;;4.34;100.00;103257.72;10428219;28;20049;-79
2022/12/01 03:16:15;;;;;;;4.80;2.72;;;;;;;4.31;100.00;103252.31;10404337;28;20037;-79
2022/12/01 03:21:27;;;;;;;10.75;2.08;;;;;;;4.30;100.00;103240.31;10464638;28;20041;-79
2022/12/01 03:26:34;;;;;;;3.45;2.47;;;;;;;4.30;100.00;103237.78;10434767;28;20543;-79
2022/12/01 03:31:45;;;;;;;1.23;0.93;;;;;;;4.28;100.00;103234.22;10417428;28;20049;-79
2022/12/01 03:36:52;;;;;;;3.85;1.58;;;;;;;4.32;100.00;103228.59;10436782;28;20095;-79
2022/12/01 03:42:06;;;;;;;7.95;2.40;;;;;;;4.33;100.00;103227.84;10399176;28;20073;-81
2022/12/01 03:47:13;;;;;;;5.80;3.15;;;;;;;4.28;100.00;103226.56;10414063;28;20405;-80
2022/12/01 03:52:35;;;;;;;7.55;1.65;;;;;;;4.28;100.00;103218.91;10391221;28;20141;-80
2022/12/01 03:57:43;;;;;;;4.05;1.30;;;;;;;4.28;100.00;103218.91;10402603;28;20099;-80
2022/12/01 04:02:45;;;;;;;7.57;2.60;;;;;;;4.26;100.00;103221.28;10412311;28;20045;-80
2022/12/01 04:07:47;;;;;;;6.60;4.03;;;;;;;4.26;100.00;103220.41;10414818;28;20049;-80
2022/12/01 04:12:49;;;;;;;10.63;3.50;;;;;;;4.25;100.00;103224.59;10408177;28;20489;-80
2022/12/01 04:17:51;;;;;;;1.48;1.35;;;;;;;4.25;100.00;103223.72;10376807;28;20535;-80
2022/12/01 04:22:52;;;;;;;1.30;0.93;;;;;;;4.27;100.00;103217.09;10411075;28;20038;-81
2022/12/01 04:27:54;;;;;;;9.52;1.70;;;;;;;4.26;100.00;103216.19;10400120;28;20053;-80
2022/12/01 04:32:56;;;;;;;5.05;1.70;;;;;;;4.23;100.00;103217.56;10419191;28;20544;-80
2022/12/01 04:37:58;;;;;;;4.82;2.97;;;;;;;4.21;100.00;103211.44;10405217;28;20132;-81
2022/12/01 04:43:00;;;;;;;0.77;0.63;;;;;;;4.21;100.00;103203.78;10378236;28;20099;-80
2022/12/01 04:48:01;;;;;;;3.28;2.70;;;;;;;4.22;100.00;103197.91;10414346;28;20060;-80
2022/12/01 04:53:03;;;;;;;2.83;1.90;;;;;;;4.22;100.00;103197.91;10432524;28;20484;-80
2022/12/01 04:58:05;;;;;;;6.18;4.38;;;;;;;4.23;100.00;103205.72;10398913;28;20049;-80
2022/12/01 05:03:06;;;;;;;7.18;3.00;;;;;;;4.21;100.00;103206.31;10434494;28;20041;-80
2022/12/01 05:08:15;;;;;;;2.70;1.73;;;;;;;4.18;100.00;103195.88;10436211;28;20053;-80
2022/12/01 05:13:18;;;;;;;1.75;0.98;;;;;;;4.19;100.00;103188.34;10415098;28;20045;-80
2022/12/01 05:18:20;;;;;;;7.05;1.55;;;;;;;4.16;100.00;103182.06;10414737;28;20140;-80
2022/12/01 05:23:23;;;;;;;8.32;2.67;;;;;;;4.12;100.00;103181.81;10414510;28;20053;-80
2022/12/01 05:28:26;;;;;;;0.65;0.55;;;;;;;4.12;100.00;103166.50;10415343;28;20107;-81
2022/12/01 05:33:30;;;;;;;2.92;1.80;;;;;;;4.16;100.00;103161.66;10447143;28;20049;-79
2022/12/01 05:38:32;;;;;;;10.52;3.83;;;;;;;4.15;100.00;103164.97;10422084;28;20412;-80
2022/12/01 05:43:34;;;;;;;4.82;2.70;;;;;;;4.19;100.00;103141.53;10414082;28;20042;-81
2022/12/01 05:48:35;;;;;;;1.73;1.50;;;;;;;4.17;100.00;103137.94;10414868;28;20049;-80
2022/12/01 05:53:37;;;;;;;3.90;2.55;;;;;;;4.16;100.00;103137.06;10413605;28;20081;-80
2022/12/01 05:58:39;;;;;;;4.03;2.50;;;;;;;4.19;100.00;103132.19;10416097;28;20111;-80
2022/12/01 06:03:41;;;;;;;4.95;2.03;;;;;;;4.23;100.00;103128.25;10405281;28;20049;-80
2022/12/01 06:08:43;;;;;;;4.95;2.42;;;;;;;4.24;100.00;103120.75;10404757;28;20079;-80
2022/12/01 06:13:44;;;;;;;6.32;2.42;;;;;;;4.24;100.00;103112.19;10422503;28;20045;-81
2022/12/01 06:18:46;;;;;;;3.20;1.67;;;;;;;4.22;100.00;103117.19;10398011;28;20038;-80
2022/12/01 06:23:48;;;;;;;5.20;3.35;;;;;;;4.23;100.00;103118.06;10396499;28;20068;-79
2022/12/01 06:28:49;;;;;;;5.55;3.35;;;;;;;4.20;100.00;103110.16;10394472;28;20080;-80
2022/12/01 06:34:47;;;;;;;2.95;1.60;;;;;;;4.22;100.00;103113.72;10426059;28;20095;-79
2022/12/01 06:39:48;;;;;;;2.35;2.00;;;;;;;4.21;100.00;103114.47;10410619;28;20046;-80
2022/12/01 06:44:50;;;;;;;2.33;1.80;;;;;;;4.20;100.00;103125.47;10401999;28;20493;-80
2022/12/01 06:49:52;;;;;;;2.90;1.85;;;;;;;4.23;100.00;103123.16;10419468;28;20091;-80
2022/12/01 06:54:54;;;;;;;6.80;2.55;;;;;;;4.21;100.00;103127.22;10416920;28;20095;-81
2022/12/01 06:59:56;;;;;;;8.40;5.18;;;;;;;4.22;100.00;103134.13;10419185;28;20068;-80
2022/12/01 07:04:58;;;;;;;7.35;2.15;;;;;;;4.19;100.00;103133.88;10433091;28;20030;-82
2022/12/01 07:10:00;;;;;;;4.63;3.65;;;;;;;4.21;100.00;103135.78;10418458;28;20064;-79
2022/12/01 07:15:03;;;;;;;13.07;3.42;;;;;;;4.23;100.00;103138.47;10402212;28;20041;-80
2022/12/01 07:20:05;;;;;;;10.63;3.97;;;;;;;4.25;100.00;103144.63;10418337;28;20041;-80
2022/12/01 07:25:08;;;;;;;3.70;1.67;;;;;;;4.22;100.00;103144.31;10432508;28;20453;-80
2022/12/01 07:30:10;;;;;;;3.40;2.83;;;;;;;4.23;100.00;103139.38;10460321;28;20044;-80
2022/12/01 07:35:12;;;;;;;3.25;2.97;;;;;;;4.26;100.00;103156.63;10453844;28;20045;-79
2022/12/01 07:40:14;;;;;;;12.10;3.53;;;;;;;4.24;100.00;103153.94;10441434;28;20058;-80
2022/12/01 07:45:16;;;;;;;2.22;1.67;;;;;;;4.27;100.00;103148.19;10415781;28;20042;-79
2022/12/01 07:50:17;;;;;;;20.98;3.80;;;;;;;4.30;100.00;103153.56;10421696;28;20568;-79
2022/12/01 07:55:19;;;;;;;2.90;1.42;;;;;;;4.28;100.00;103143.22;10416779;28;20041;-79
2022/12/01 08:00:21;;;;;;;11.18;3.40;;;;;;;4.31;100.00;103142.59;10431166;28;20089;-80
2022/12/01 08:05:22;;;;;;;4.07;2.67;;;;;;;4.34;100.00;103142.88;10416481;28;20080;-79
2022/12/01 08:10:24;;;;;;;4.97;2.38;;;;;;;4.34;100.00;103147.06;10433914;28;20056;-79
2022/12/01 08:15:25;;;;;;;5.55;3.17;;;;;;;4.40;100.00;103158.72;10398162;28;20045;-79
2022/12/01 08:20:27;;;;;;;11.65;1.75;;;;;;;4.39;100.00;103151.81;10411349;28;20045;-79
2022/12/01 08:25:29;;;;;;;7.25;2.65;;;;;;;4.50;100.00;103156.97;10412422;28;20033;-79
2022/12/01 08:30:31;;;;;;;11.45;2.20;;;;;;;4.49;100.00;103158.63;10417778;28;20042;-80
2022/12/01 08:35:41;;;;;;;2.08;1.48;;;;;;;4.50;100.00;103162.09;10408863;28;20042;-80
2022/12/01 08:40:42;;;;;;;4.72;2.15;;;;;;;4.52;100.00;103155.44;10400693;28;20041;-80
2022/12/01 08:46:01;;;;;;;1.05;0.95;;;;;;;4.50;100.00;103160.41;10409128;28;20068;-80
2022/12/01 08:51:14;;;;;;;5.50;2.58;;;;;;;4.49;100.00;103165.38;10414555;28;20486;-80
2022/12/01 08:56:29;;;;;;;2.88;2.00;;;;;;;4.51;100.00;103161.28;10382789;28;20520;-80
2022/12/01 09:01:32;;;;;;;11.43;3.75;;;;;;;4.47;100.00;103161.78;10412721;28;20056;-81
2022/12/01 09:06:39;;;;;;;5.05;2.83;;;;;;;4.50;100.00;103160.41;10395754;28;20045;-81
2022/12/01 09:11:42;;;;;;;8.85;2.47;;;;;;;4.60;100.00;103146.78;10399749;28;20045;-80
2022/12/01 09:16:46;;;;;;;16.60;1.73;;;;;;;4.63;100.00;103146.13;10398460;28;20045;-79
2022/12/01 09:21:48;;;;;;;6.50;3.58;;;;;;;4.62;100.00;103135.06;10384239;28;20052;-79
2022/12/01 09:26:54;;;;;;;31.70;3.28;;;;;;;4.71;100.00;103137.47;10391210;28;20045;-78
2022/12/01 09:31:58;;;;;;;4.45;2.28;;;;;;;4.79;100.00;103143.28;10396218;28;20452;-78
2022/12/01 09:37:01;;;;;;;5.15;2.65;;;;;;;4.78;100.00;103139.81;10411537;28;20037;-79
2022/12/01 09:42:15;;;;;;;3.83;2.15;;;;;;;4.83;100.00;103140.19;10416807;28;20130;-79
2022/12/01 09:47:27;;;;;;;5.88;2.55;;;;;;;4.83;100.00;103140.19;10396810;28;20041;-79
2022/12/01 09:52:44;;;;;;;5.47;2.75;;;;;;;4.89;100.00;103130.50;10407903;28;20064;-79
2022/12/01 09:57:48;;;;;;;4.18;2.33;;;;;;;4.98;100.00;103125.28;10424952;28;20128;-83
2022/12/01 10:03:29;;;;;;;3.70;1.88;;;;;;;4.92;100.00;103120.56;10405349;28;20038;-83
2022/12/01 10:08:34;;;;;;;;;;;;;;;4.98;100.00;103110.84;10377639;28;20157;-83
2022/12/01 10:13:35;;;;;;;3.75;2.15;;;;;;;5.06;100.00;103108.97;10401378;28;19929;-83
2022/12/01 10:18:55;;;;;;;3.90;2.92;;;;;;;4.98;100.00;103105.75;10382714;28;20112;-84
2022/12/01 10:24:00;;;;;;;2.80;1.30;;;;;;;5.03;100.00;103109.56;10398738;28;20076;-83
2022/12/01 10:29:11;;;;;;;17.65;3.22;;;;;;;5.15;100.00;103101.16;10387649;28;20096;-84
2022/12/01 10:34:20;;;;;;;2.78;2.05;;;;;;;5.10;100.00;103095.66;10395435;28;20080;-83
2022/12/01 10:39:50;;;;;;;10.85;2.60;;;;;;;5.15;100.00;103089.25;10386442;28;20476;-84
2022/12/01 10:44:55;;;;;;;6.70;2.72;;;;;;;5.15;100.00;103088.38;10403300;28;20107;-84
2022/12/01 10:49:57;;;;;;;3.10;1.52;;;;;;;5.23;100.00;103089.91;10400441;28;20128;-83
2022/12/01 10:55:00;;;;;;;5.60;2.65;;;;;;;5.28;100.00;103092.84;10392373;28;20046;-83
2022/12/01 11:00:07;;;;;;;1.55;1.45;;;;;;;5.27;100.00;103088.50;10383842;28;20042;-83
2022/12/01 11:05:25;;;;;;;6.90;1.42;;;;;;;5.21;100.00;103076.97;10394512;28;20045;-84
2022/12/01 11:10:32;;;;;;;2.38;1.63;;;;;;;5.11;100.00;103081.22;10402570;28;20386;-84
2022/12/01 11:15:39;;;;;;;5.18;2.72;;;;;;;5.15;100.00;103075.59;10382780;28;20132;-83
2022/12/01 11:20:41;;;;;;;4.32;2.17;;;;;;;5.31;100.00;103071.00;10399199;28;20046;-83
2022/12/01 11:26:04;;;;;;;4.65;2.95;;;;;;;5.36;100.00;103058.59;10396709;28;20547;-84
2022/12/01 11:31:09;;;;;;;2.47;1.52;;;;;;;5.37;100.00;103053.59;10397719;28;20053;-83
2022/12/01 11:36:36;;;;;;;7.85;2.83;;;;;;;5.39;100.00;103043.50;10405970;28;20081;-84
2022/12/01 11:41:39;;;;;;;4.45;2.63;;;;;;;5.44;100.00;103026.84;10388854;28;20632;-83
2022/12/01 11:46:42;;;;;;;7.57;2.40;;;;;;;5.35;100.00;103027.00;10381968;28;20132;-84
2022/12/01 11:52:10;;;;;;;2.78;1.63;;;;;;;5.22;100.00;103021.66;10397294;28;20038;-84
2022/12/01 11:57:14;;;;;;;2.78;1.23;;;;;;;5.36;100.00;103017.69;10399768;28;20447;-83
2022/12/01 12:03:03;;;;;;;4.35;2.22;;;;;;;5.23;100.00;103015.81;10400147;28;20042;-83
2022/12/01 12:08:28;;;;;;;8.17;2.73;;;;;;;5.19;100.00;103006.06;10416862;28;20368;-84
2022/12/01 12:13:58;;;;;;;3.22;1.88;;;;;;;5.26;100.00;103005.81;10383924;28;20054;-83
2022/12/01 12:19:22;;;;;;;2.63;2.10;;;;;;;5.34;100.00;103011.56;10395140;28;20042;-83
2022/12/01 12:24:55;;;;;;;1.30;1.15;;;;;;;5.19;100.00;103003.53;10389544;28;20346;-83
2022/12/01 12:30:08;;;;;;;4.80;0.90;;;;;;;5.21;100.00;103002.88;10403588;28;20053;-82
2022/12/01 12:35:15;;;;;;;3.45;2.78;;;;;;;5.22;100.00;102997.00;10407172;28;20270;-82
2022/12/01 12:40:47;;;;;;;3.25;2.47;;;;;;;5.21;100.00;102996.88;10401017;28;20045;-83
2022/12/01 12:46:01;;;;;;;4.43;3.03;;;;;;;5.18;100.00;102994.06;10384336;28;20092;-83
2022/12/01 12:51:12;;;;;;;3.95;2.65;;;;;;;5.22;100.00;102993.56;10395645;28;20437;-83
2022/12/01 12:56:18;;;;;;;2.53;1.95;;;;;;;5.10;100.00;103013.00;10416820;28;20076;-83
2022/12/01 13:01:24;;;;;;;2.72;1.90;;;;;;;5.21;100.00;103013.09;10402811;28;20436;-82
2022/12/01 13:06:45;;;;;;;3.95;2.67;;;;;;;5.16;100.00;103016.06;10398427;28;20039;-82
2022/12/01 13:12:00;;;;;;;8.02;2.47;;;;;;;5.14;100.00;103015.03;10404968;28;20064;-82
2022/12/01 13:17:17;;;;;;;1.67;1.52;;;;;;;5.10;100.00;103018.13;10427709;28;20041;-82
2022/12/01 13:22:28;;;;;;;2.55;1.90;;;;;;;5.01;100.00;103019.16;10387721;28;20477;-82
2022/12/01 13:27:33;;;;;;;3.78;1.23;;;;;;;5.04;100.00;103019.38;10398947;28;20108;-82
2022/12/01 13:32:39;;;;;;;4.40;2.65;;;;;;;4.91;100.00;103022.56;10398009;28;20586;-84
2022/12/01 13:37:42;;;;;;;1.63;1.25;;;;;;;5.04;100.00;103016.81;10370587;28;20076;-82
2022/12/01 13:42:58;;;;;;;7.30;3.08;;;;;;;4.89;100.00;103013.00;10393037;28;20065;-82
2022/12/01 13:48:25;;;;;;;12.85;2.10;;;;;;;4.85;100.00;103010.97;10398663;28;20073;-84
2022/12/01 13:53:33;;;;;;;3.22;1.33;;;;;;;4.88;100.00;103007.00;10382202;28;20045;-83
2022/12/01 13:58:36;;;;;;;9.95;4.32;;;;;;;4.90;100.00;103009.69;10418640;28;20075;-83
2022/12/01 14:03:39;;;;;;;3.28;2.72;;;;;;;4.94;100.00;103006.63;10407046;28;20080;-83
2022/12/01 14:08:47;;;;;;;2.47;1.48;;;;;;;4.91;100.00;102996.16;10401563;28;20049;-83
2022/12/01 14:13:54;;;;;;;5.82;1.55;;;;;;;4.89;100.00;103008.81;10392507;28;20046;-82
2022/12/01 14:18:58;;;;;;;3.72;1.30;;;;;;;4.87;100.00;103006.91;10419954;28;20064;-83
2022/12/01 14:24:03;;;;;;;7.68;1.17;;;;;;;4.83;100.00;103003.19;10437500;28;20041;-83
2022/12/01 14:29:08;;;;;;;5.10;1.63;;;;;;;4.91;100.00;102993.59;10410234;28;20045;-83
2022/12/01 14:34:14;;;;;;;1.73;1.45;;;;;;;4.85;100.00;103000.75;10396870;28;20069;-82
2022/12/01 14:39:27;;;;;;;2.10;1.30;;;;;;;4.81;100.00;102983.38;10400815;28;20053;-83
2022/12/01 14:44:32;;;;;;;3.90;1.60;;;;;;;4.78;100.00;102978.91;10375046;28;20308;-83
2022/12/01 14:49:42;;;;;;;4.25;1.92;;;;;;;4.73;100.00;102973.41;10373401;28;20509;-83
2022/12/01 14:54:47;;;;;;;3.80;1.80;;;;;;;4.78;100.00;102967.81;10370839;28;20041;-83
2022/12/01 15:00:12;;;;;;;2.10;1.33;;;;;;;4.74;100.00;102972.66;10396046;28;20045;-82
2022/12/01 15:05:17;;;;;;;4.68;2.75;;;;;;;4.71;100.00;102977.53;10392362;28;20061;-82
2022/12/01 15:10:35;;;;;;;2.20;1.10;;;;;;;4.70;100.00;102985.94;10405052;28;20085;-78
2022/12/01 15:15:49;;;;;;;4.18;2.70;;;;;;;4.64;100.00;102975.22;10418082;28;20453;-79
2022/12/01 15:20:58;;;;;;;0.98;0.55;;;;;;;4.63;100.00;102985.28;10417833;28;20037;-79
2022/12/01 15:26:00;;;;;;;2.53;2.00;;;;;;;4.60;100.00;102988.47;10417037;28;20056;-79
2022/12/01 15:31:09;;;;;;;4.32;1.75;;;;;;;4.63;100.00;102998.97;10376442;28;20073;-78
2022/12/01 15:36:12;;;;;;;0.22;0.22;;;;;;;4.56;100.00;102996.66;10412720;28;20451;-79
2022/12/01 15:41:22;;;;;;;1.27;1.00;;;;;;;4.58;100.00;102997.66;10416888;28;20468;-78
2022/12/01 15:46:35;;;;;;;5.28;2.70;;;;;;;4.60;100.00;102989.41;10420200;28;20040;-79
2022/12/01 15:51:37;;;;;;;1.17;0.85;;;;;;;4.56;100.00;102983.91;10426367;28;20046;-80
2022/12/01 15:57:29;;;;;;;0.88;0.80;;;;;;;4.54;100.00;102999.06;10431533;28;20516;-80
2022/12/01 16:02:32;;;;;;;5.78;1.15;;;;;;;4.56;100.00;102991.56;10391765;28;20049;-79
2022/12/01 16:07:36;;;;;;;4.22;3.58;;;;;;;4.52;100.00;102997.16;10402557;28;20094;-80
2022/12/01 16:13:37;;;;;;;3.55;2.22;;;;;;;4.56;100.00;102996.66;10423225;28;20140;-79
2022/12/01 16:18:38;;;;;;;3.25;2.00;;;;;;;4.53;100.00;103001.50;10407132;28;20052;-80
2022/12/01 16:23:40;;;;;;;2.17;1.17;;;;;;;4.56;100.00;103006.88;10415954;28;20052;-80
2022/12/01 16:28:42;;;;;;;2.30;0.85;;;;;;;4.50;100.00;103016.56;10415918;28;20045;-79
2022/12/01 16:33:44;;;;;;;3.22;2.35;;;;;;;4.48;100.00;103015.53;10447311;28;20041;-79
2022/12/01 16:38:45;;;;;;;1.10;0.77;;;;;;;4.42;100.00;103024.47;10418565;28;20489;-80
2022/12/01 16:43:48;;;;;;;9.40;3.83;;;;;;;4.40;100.00;103032.75;10397805;28;20092;-80
2022/12/01 16:49:23;;;;;;;1.17;0.75;;;;;;;4.37;100.00;103041.03;10401150;28;20048;-80
2022/12/01 16:54:27;;;;;;;2.58;1.85;;;;;;;4.38;100.00;103055.59;10398577;28;20049;-80
2022/12/01 16:59:44;;;;;;;2.38;1.27;;;;;;;4.39;100.00;103062.50;10411226;28;20045;-78
2022/12/01 17:04:46;;;;;;;3.90;1.30;;;;;;;4.40;100.00;103068.47;10428620;28;20045;-78
2022/12/01 17:09:51;;;;;;;2.42;1.65;;;;;;;4.36;100.00;103069.88;10435232;28;20493;-79
2022/12/01 17:14:52;;;;;;;2.92;2.67;;;;;;;4.39;100.00;103075.25;10415025;28;20045;-78
2022/12/01 17:19:54;;;;;;;4.15;2.85;;;;;;;4.34;100.00;103066.31;10413797;28;20049;-78
2022/12/01 17:24:58;;;;;;;3.60;2.00;;;;;;;4.38;100.00;103078.56;10432998;28;20100;-78
2022/12/01 17:29:59;;;;;;;13.07;3.13;;;;;;;4.31;100.00;103080.47;10413600;28;20060;-79
2022/12/01 17:35:30;;;;;;;3.40;1.73;;;;;;;4.35;100.00;103087.59;10414794;28;20045;-78
2022/12/01 17:40:32;;;;;;;8.65;1.75;;;;;;;4.32;100.00;103095.00;10420252;28;20060;-78
2022/12/01 17:46:24;;;;;;;2.75;2.08;;;;;;;4.30;100.00;103094.84;10414146;28;20041;-79
2022/12/01 17:51:51;;;;;;;2.83;1.88;;;;;;;4.28;100.00;103093.84;10437848;28;20084;-78
2022/12/01 17:56:53;;;;;;;4.00;2.05;;;;;;;4.24;100.00;103096.88;10429964;28;20399;-78
2022/12/01 18:01:54;;;;;;;10.50;3.45;;;;;;;4.24;100.00;103104.53;10420844;28;20589;-79
2022/12/01 18:06:56;;;;;;;5.32;2.83;;;;;;;4.32;100.00;103102.66;10397060;28;20068;-78
2022/12/01 18:11:58;;;;;;;3.30;2.25;;;;;;;4.31;100.00;103091.56;10421155;28;20046;-80
2022/12/01 18:17:00;;;;;;;5.68;3.42;;;;;;;4.30;100.00;103102.50;10421175;28;20079;-79
2022/12/01 18:22:02;;;;;;;1.08;0.90;;;;;;;4.33;100.00;103095.13;10420830;28;20133;-79
2022/12/01 18:27:04;;;;;;;7.88;4.30;;;;;;;4.25;100.00;103081.69;10420933;28;20046;-79
2022/12/01 18:32:05;;;;;;;5.07;2.75;;;;;;;4.28;100.00;103081.09;10404226;28;20049;-79
2022/12/01 18:37:07;;;;;;;3.63;3.33;;;;;;;4.31;100.00;103081.34;10420717;28;20049;-79
2022/12/01 18:42:10;;;;;;;24.42;3.30;;;;;;;4.25;100.00;103079.16;10420603;28;20045;-79
2022/12/01 18:47:11;;;;;;;10.45;4.78;;;;;;;4.24;100.00;103084.13;10403624;28;20069;-79
2022/12/01 18:52:13;;;;;;;3.30;2.30;;;;;;;4.23;100.00;103072.13;10437318;28;20436;-78
2022/12/01 18:57:16;;;;;;;3.15;1.77;;;;;;;4.20;100.00;103074.44;10439973;28;20065;-78
2022/12/01 19:02:18;;;;;;;6.05;3.80;;;;;;;4.13;100.00;103066.22;10419905;28;20053;-79
2022/12/01 19:07:20;;;;;;;4.93;2.45;;;;;;;4.12;100.00;103068.66;10434410;28;20507;-79
2022/12/01 19:12:29;;;;;;;4.70;2.78;;;;;;;4.13;100.00;103070.44;10418964;28;20045;-79
2022/12/01 19:17:35;;;;;;;3.50;2.78;;;;;;;4.07;100.00;103070.78;10419304;28;20381;-78
2022/12/01 19:22:37;;;;;;;3.40;2.58;;;;;;;4.07;100.00;103072.47;10418331;28;20045;-79
2022/12/01 19:27:39;;;;;;;13.02;4.10;;;;;;;4.08;100.00;103062.38;10417363;28;20049;-79
2022/12/01 19:32:42;;;;;;;10.73;3.30;;;;;;;4.10;100.00;103065.97;10413922;28;20050;-79
2022/12/01 19:37:44;;;;;;;3.05;1.85;;;;;;;4.06;100.00;103055.34;10398016;28;20048;-79
2022/12/01 19:42:46;;;;;;;5.25;1.65;;;;;;;4.04;100.00;103047.59;10415954;28;20088;-79
2022/12/01 19:47:50;;;;;;;14.02;2.30;;;;;;;4.04;100.00;103039.94;10413023;28;20500;-79
2022/12/01 19:52:51;;;;;;;3.50;2.63;;;;;;;4.06;100.00;103033.28;10394041;28;20049;-78
2022/12/01 19:57:53;;;;;;;4.57;2.80;;;;;;;4.02;100.00;103036.34;10409901;28;20658;-79
2022/12/01 20:02:55;;;;;;;2.42;2.22;;;;;;;4.04;100.00;103037.38;10412522;28;20234;-79
2022/12/01 20:07:56;;;;;;;4.07;2.22;;;;;;;3.97;100.00;103033.38;10413169;28;20052;-79
2022/12/01 20:12:58;;;;;;;5.57;2.95;;;;;;;3.99;100.00;103043.72;10412809;28;20104;-79
2022/12/01 20:18:00;;;;;;;3.55;2.75;;;;;;;3.93;100.00;103040.63;10395144;28;20041;-78
2022/12/01 20:23:01;;;;;;;3.03;2.47;;;;;;;3.98;100.00;103044.50;10411993;28;20049;-78
2022/12/01 20:28:03;;;;;;;11.30;2.60;;;;;;;3.94;100.00;103047.53;10413175;28;20034;-78
2022/12/01 20:33:05;;;;;;;5.88;3.78;;;;;;;3.72;100.00;103025.25;10412052;28;20260;-79
2022/12/01 20:38:06;;;;;;;2.25;2.05;;;;;;;3.67;100.00;103026.50;10413148;28;20037;-77
2022/12/01 20:43:08;;;;;;;3.85;1.20;;;;;;;3.59;100.00;103027.47;10411607;28;20061;-76
2022/12/01 20:48:10;;;;;;;8.00;3.75;;;;;;;3.59;100.00;103022.38;10412262;28;20103;-79
2022/12/01 20:53:11;;;;;;;5.60;3.80;;;;;;;3.64;100.00;103021.13;10411649;28;20049;-80
2022/12/01 20:58:13;;;;;;;2.72;2.50;;;;;;;3.44;100.00;103025.38;10433184;28;20038;-78
2022/12/01 21:03:15;;;;;;;6.18;3.20;;;;;;;3.40;100.00;103014.75;10398455;28;20057;-79
2022/12/01 21:08:17;;;;;;;4.47;2.63;;;;;;;3.33;100.00;103008.22;10410985;28;20073;-78
2022/12/01 21:18:54;;;;;;;4.32;3.03;;;;;;;3.11;100.00;102998.63;10410684;28;20037;-82
2022/12/01 21:24:21;;;;;;;2.70;2.45;;;;;;;3.12;100.00;102992.78;10411078;28;20068;-78
2022/12/01 21:29:25;;;;;;;3.70;2.17;;;;;;;3.07;100.00;102983.84;10414495;28;20051;-78
2022/12/01 21:34:28;;;;;;;3.00;2.45;;;;;;;3.04;100.00;102986.13;10412640;28;20570;-79
2022/12/01 21:39:29;;;;;;;3.72;2.75;;;;;;;3.03;100.00;102968.16;10424882;28;20045;-78
2022/12/01 21:44:35;;;;;;;3.28;2.67;;;;;;;2.94;100.00;102945.31;10373674;28;20107;-78
2022/12/01 21:49:38;;;;;;;1.88;1.75;;;;;;;2.96;100.00;102938.69;10373175;28;20038;-78
2022/12/01 21:54:40;;;;;;;2.67;1.20;;;;;;;2.94;100.00;102941.09;10428332;28;20040;-78
2022/12/01 21:59:42;;;;;;;1.90;1.42;;;;;;;2.90;100.00;102944.16;10409271;28;20041;-78
2022/12/01 22:04:44;;;;;;;2.08;1.85;;;;;;;2.88;100.00;102947.28;10425478;28;20069;-78
2022/12/01 22:09:46;;;;;;;2.47;1.40;;;;;;;2.82;100.00;102935.81;10419129;28;20423;-80
2022/12/01 22:14:52;;;;;;;2.53;2.25;;;;;;;2.78;100.00;102918.47;10473845;28;20053;-80
2022/12/01 22:20:13;;;;;;;1.48;1.38;;;;;;;2.78;100.00;102912.47;10449718;28;20505;-80
2022/12/01 22:25:24;;;;;;;2.83;2.05;;;;;;;2.74;100.00;102916.41;10431417;28;20053;-79
2022/12/01 22:30:26;;;;;;;1.80;1.65;;;;;;;2.69;100.00;102920.19;10445196;28;20531;-77
2022/12/01 22:35:43;;;;;;;3.50;2.33;;;;;;;2.69;100.00;102922.72;10420098;28;20065;-77
2022/12/01 22:41:01;;;;;;;3.25;1.60;;;;;;;2.63;100.00;102912.88;10416771;28;20067;-77
2022/12/01 22:46:22;;;;;;;5.75;2.67;;;;;;;2.50;100.00;102910.88;10431022;28;20038;-78
2022/12/01 22:51:29;;;;;;;11.98;1.48;;;;;;;2.50;100.00;102912.53;10418686;28;20104;-78
2022/12/01 22:56:48;;;;;;;1.27;1.17;;;;;;;2.49;100.00;102904.00;10419418;28;20104;-78
2022/12/01 23:01:53;;;;;;;6.47;2.70;;;;;;;2.44;100.00;102905.22;10451672;28;20059;-77
2022/12/01 23:06:58;;;;;;;1.85;1.52;;;;;;;2.50;100.00;102900.69;10445905;28;20080;-78
2022/12/01 23:12:27;;;;;;;4.55;2.22;;;;;;;2.42;100.00;102919.44;10425663;28;20055;-78
2022/12/01 23:18:19;;;;;;;1.33;0.73;;;;;;;2.38;100.00;102910.63;10439372;28;20042;-80
2022/12/01 23:23:27;;;;;;;1.38;1.27;;;;;;;2.50;100.00;102905.78;10382904;28;20057;-78
2022/12/01 23:28:29;;;;;;;5.68;1.92;;;;;;;2.50;100.00;102900.69;10417826;28;20046;-79
2022/12/01 23:33:32;;;;;;;1.45;1.27;;;;;;;2.47;100.00;102905.53;10419169;28;20444;-78
2022/12/01 23:38:39;;;;;;;1.50;1.40;;;;;;;2.41;100.00;102898.97;10417795;28;20068;-78